createdAt,value
2018-09-08T00:01:29.404Z,15.30
2018-09-08T00:03:57.548Z,15.20
2018-09-08T00:06:31.259Z,15.10
2018-09-08T00:08:59.452Z,14.90
2018-09-08T00:11:27.628Z,15.00
2018-09-08T00:13:55.864Z,14.90
2018-09-08T00:16:29.419Z,14.90
2018-09-08T00:19:03.036Z,14.70
2018-09-08T00:21:36.568Z,14.70
2018-09-08T00:24:10.261Z,14.70
2018-09-08T00:26:37.663Z,14.80
2018-09-08T00:29:09.949Z,14.80
2018-09-08T00:31:38.117Z,14.80
2018-09-08T00:34:06.238Z,14.70
2018-09-08T00:36:34.378Z,14.70
2018-09-08T00:39:02.546Z,14.80
2018-09-08T00:41:30.952Z,14.80
2018-09-08T00:43:59.068Z,14.70
2018-09-08T00:46:27.274Z,14.60
2018-09-08T00:48:55.439Z,14.60
2018-09-08T00:51:23.642Z,14.60
2018-09-08T00:53:51.756Z,14.60
2018-09-08T00:56:19.922Z,14.70
2018-09-08T00:58:53.573Z,14.60
2018-09-08T01:01:21.683Z,14.50
2018-09-08T01:03:49.786Z,14.60
2018-09-08T01:06:18.029Z,14.70
2018-09-08T01:08:46.121Z,14.80
2018-09-08T01:11:14.257Z,14.80
2018-09-08T01:13:42.411Z,14.80
2018-09-08T01:16:10.571Z,14.80
2018-09-08T01:18:38.861Z,14.70
2018-09-08T01:21:08.712Z,14.80
2018-09-08T01:23:37.128Z,14.80
2018-09-08T01:26:05.554Z,14.90
2018-09-08T01:28:33.772Z,14.90
2018-09-08T01:31:01.889Z,14.80
2018-09-08T01:33:30.037Z,14.80
2018-09-08T01:35:58.274Z,14.80
2018-09-08T01:38:26.692Z,14.70
2018-09-08T01:40:54.905Z,14.60
2018-09-08T01:43:23.027Z,14.60
2018-09-08T01:45:51.200Z,14.50
2018-09-08T01:48:19.381Z,14.50
2018-09-08T01:50:47.560Z,14.60
2018-09-08T01:53:15.700Z,14.70
2018-09-08T01:55:43.834Z,14.90
2018-09-08T01:58:12.038Z,15.10
2018-09-08T02:00:40.149Z,15.20
2018-09-08T02:03:08.328Z,15.30
2018-09-08T02:05:36.512Z,15.30
2018-09-08T02:08:04.681Z,15.40
2018-09-08T02:10:32.890Z,15.30
2018-09-08T02:13:01.037Z,15.40
2018-09-08T02:15:29.212Z,15.30
2018-09-08T02:17:57.410Z,15.30
2018-09-08T02:20:25.642Z,15.30
2018-09-08T02:22:53.881Z,15.30
2018-09-08T02:25:22.082Z,15.20
2018-09-08T02:27:50.209Z,15.10
2018-09-08T02:30:18.346Z,15.00
2018-09-08T02:32:46.601Z,14.90
2018-09-08T02:35:14.708Z,14.80
2018-09-08T02:37:42.889Z,14.70
2018-09-08T02:40:11.011Z,14.60
2018-09-08T02:42:39.079Z,14.60
2018-09-08T02:45:07.640Z,14.50
2018-09-08T02:47:35.775Z,14.50
2018-09-08T02:50:15.460Z,14.40
2018-09-08T02:52:42.689Z,14.30
2018-09-08T02:55:09.884Z,14.30
2018-09-08T02:57:37.085Z,14.30
2018-09-08T03:00:04.284Z,14.20
2018-09-08T03:02:31.540Z,14.10
2018-09-08T03:04:58.825Z,14.10
2018-09-08T03:07:26.057Z,14.00
2018-09-08T03:09:53.270Z,14.00
2018-09-08T03:12:20.560Z,14.00
2018-09-08T03:14:47.772Z,14.00
2018-09-08T03:17:14.994Z,13.90
2018-09-08T03:19:42.217Z,13.80
2018-09-08T03:22:09.440Z,13.70
2018-09-08T03:24:36.615Z,13.60
2018-09-08T03:27:03.810Z,13.60
2018-09-08T03:29:31.029Z,13.50
2018-09-08T03:31:58.197Z,13.50
2018-09-08T03:34:25.400Z,13.40
2018-09-08T03:36:52.632Z,13.50
2018-09-08T03:39:19.870Z,13.60
2018-09-08T03:41:47.029Z,13.70
2018-09-08T03:44:14.271Z,13.80
2018-09-08T03:46:41.567Z,13.90
2018-09-08T03:49:08.906Z,14.00
2018-09-08T03:51:36.191Z,14.00
2018-09-08T03:54:03.426Z,14.10
2018-09-08T03:56:31.455Z,14.10
2018-09-08T03:58:58.670Z,14.10
2018-09-08T04:01:25.832Z,14.20
2018-09-08T04:03:53.918Z,14.10
2018-09-08T04:06:21.976Z,14.00
2018-09-08T04:08:50.120Z,14.00
2018-09-08T04:11:18.337Z,14.00
2018-09-08T04:13:46.468Z,13.90
2018-09-08T04:16:14.586Z,13.80
2018-09-08T04:18:42.781Z,13.80
2018-09-08T04:21:11.081Z,13.70
2018-09-08T04:23:39.287Z,13.70
2018-09-08T04:26:07.508Z,13.70
2018-09-08T04:28:35.667Z,13.70
2018-09-08T04:31:04.488Z,13.60
2018-09-08T04:33:33.006Z,13.60
2018-09-08T04:36:01.632Z,13.70
2018-09-08T04:38:29.930Z,13.70
2018-09-08T04:40:58.192Z,13.70
2018-09-08T04:43:26.353Z,13.70
2018-09-08T04:45:54.748Z,13.70
2018-09-08T04:48:22.968Z,13.70
2018-09-08T04:50:51.175Z,13.70
2018-09-08T04:53:19.410Z,13.80
2018-09-08T04:55:47.529Z,13.90
2018-09-08T04:58:15.608Z,13.80
2018-09-08T05:00:43.779Z,13.90
2018-09-08T05:03:11.988Z,13.90
2018-09-08T05:05:40.136Z,14.00
2018-09-08T05:08:08.368Z,14.00
2018-09-08T05:10:36.596Z,14.10
2018-09-08T05:13:04.745Z,14.20
2018-09-08T05:15:32.823Z,14.20
2018-09-08T05:18:01.020Z,14.20
2018-09-08T05:20:29.239Z,14.40
2018-09-08T05:22:57.385Z,14.50
2018-09-08T05:25:25.621Z,14.60
2018-09-08T05:27:53.766Z,14.60
2018-09-08T05:30:21.884Z,14.70
2018-09-08T05:32:50.078Z,14.80
2018-09-08T05:35:18.267Z,14.90
2018-09-08T05:37:46.425Z,14.90
2018-09-08T05:40:14.590Z,14.90
2018-09-08T05:42:42.790Z,14.90
2018-09-08T05:45:10.961Z,14.90
2018-09-08T05:47:39.197Z,14.80
2018-09-08T05:50:07.408Z,14.90
2018-09-08T05:52:35.596Z,15.00
2018-09-08T05:55:03.783Z,14.90
2018-09-08T05:57:32.036Z,15.00
2018-09-08T06:00:00.175Z,15.00
2018-09-08T06:02:28.316Z,15.00
2018-09-08T06:04:56.521Z,15.10
2018-09-08T06:07:24.757Z,15.30
2018-09-08T06:09:52.876Z,15.40
2018-09-08T06:12:21.027Z,15.60
2018-09-08T06:14:49.124Z,15.70
2018-09-08T06:17:17.329Z,15.80
2018-09-08T06:19:45.489Z,15.80
2018-09-08T06:22:13.628Z,15.70
2018-09-08T06:24:41.784Z,15.60
2018-09-08T06:27:09.883Z,15.70
2018-09-08T06:29:38.166Z,15.70
2018-09-08T06:32:06.368Z,15.70
2018-09-08T06:34:34.543Z,15.70
2018-09-08T06:37:02.679Z,15.70
2018-09-08T06:39:30.900Z,15.70
2018-09-08T06:41:59.007Z,15.70
2018-09-08T06:44:27.148Z,15.80
2018-09-08T06:46:55.287Z,16.00
2018-09-08T06:49:23.493Z,16.00
2018-09-08T06:51:51.841Z,16.00
2018-09-08T06:54:20.074Z,16.10
2018-09-08T06:56:48.258Z,16.20
2018-09-08T06:59:16.317Z,16.20
2018-09-08T07:01:44.867Z,16.20
2018-09-08T07:04:13.056Z,16.30
2018-09-08T07:06:41.220Z,16.40
2018-09-08T07:09:10.629Z,16.50
2018-09-08T07:11:39.474Z,16.60
2018-09-08T07:14:07.724Z,16.60
2018-09-08T07:16:36.008Z,16.70
2018-09-08T07:19:04.214Z,16.80
2018-09-08T07:21:32.445Z,16.80
2018-09-08T07:24:00.594Z,16.80
2018-09-08T07:26:35.253Z,16.90
2018-09-08T07:29:05.222Z,17.10
2018-09-08T07:31:33.375Z,17.20
2018-09-08T07:34:01.560Z,17.00
2018-09-08T07:36:29.713Z,16.80
2018-09-08T07:38:57.852Z,16.90
2018-09-08T07:41:26.004Z,17.10
2018-09-08T07:43:54.210Z,17.00
2018-09-08T07:46:22.332Z,17.00
2018-09-08T07:48:50.755Z,16.90
2018-09-08T07:51:18.884Z,16.80
2018-09-08T07:53:47.204Z,16.90
2018-09-08T07:56:15.341Z,17.20
2018-09-08T07:58:43.593Z,17.30
2018-09-08T08:01:11.681Z,17.50
2018-09-08T08:03:39.959Z,17.40
2018-09-08T08:06:08.235Z,17.50
2018-09-08T08:08:36.521Z,17.60
2018-09-08T08:11:04.711Z,17.80
2018-09-08T08:13:32.972Z,17.90
2018-09-08T08:16:01.166Z,17.80
2018-09-08T08:18:29.323Z,17.90
2018-09-08T08:20:57.540Z,18.20
2018-09-08T08:23:25.705Z,18.40
2018-09-08T08:25:53.859Z,18.40
2018-09-08T08:28:22.009Z,18.60
2018-09-08T08:30:50.668Z,18.50
2018-09-08T08:33:18.814Z,18.90
2018-09-08T08:35:47.035Z,19.40
2018-09-08T08:38:15.170Z,20.40
2018-09-08T08:40:43.456Z,20.90
2018-09-08T08:43:11.637Z,21.40
2018-09-08T08:45:39.745Z,21.50
2018-09-08T08:48:08.196Z,20.70
2018-09-08T08:50:48.095Z,19.70
2018-09-08T08:53:29.826Z,19.20
2018-09-08T08:55:57.958Z,18.90
2018-09-08T08:58:26.267Z,18.90
2018-09-08T09:00:55.271Z,18.90
2018-09-08T09:03:23.437Z,20.30
2018-09-08T09:05:51.611Z,20.70
2018-09-08T09:08:20.135Z,21.90
2018-09-08T09:10:47.983Z,22.80
2018-09-08T09:13:17.260Z,23.70
2018-09-08T09:15:45.508Z,24.20
2018-09-08T09:18:23.743Z,22.50
2018-09-08T09:21:03.619Z,23.50
2018-09-08T09:23:43.512Z,25.20
2018-09-08T09:26:11.768Z,25.80
2018-09-08T09:28:40.125Z,26.60
2018-09-08T09:31:08.284Z,25.70
2018-09-08T09:33:36.944Z,25.60
2018-09-08T09:36:05.307Z,26.00
2018-09-08T09:38:33.485Z,24.70
2018-09-08T09:41:01.651Z,24.90
2018-09-08T09:43:29.892Z,25.40
2018-09-08T09:45:58.028Z,25.90
2018-09-08T09:48:26.202Z,26.60
2018-09-08T09:50:54.350Z,26.80
2018-09-08T09:53:22.561Z,26.90
2018-09-08T09:55:50.737Z,27.30
2018-09-08T09:58:18.852Z,27.60
2018-09-08T10:00:52.583Z,27.20
2018-09-08T10:03:20.804Z,27.00
2018-09-08T10:05:48.950Z,27.50
2018-09-08T10:08:17.092Z,27.30
2018-09-08T10:10:45.897Z,26.70
2018-09-08T10:13:14.153Z,27.20
2018-09-08T10:15:42.280Z,26.90
2018-09-08T10:18:10.369Z,27.20
2018-09-08T10:20:38.501Z,27.70
2018-09-08T10:23:07.911Z,27.80
2018-09-08T10:25:36.093Z,27.50
2018-09-08T10:28:04.272Z,27.20
2018-09-08T10:30:32.590Z,26.00
2018-09-08T10:33:00.725Z,26.60
2018-09-08T10:35:28.924Z,27.10
2018-09-08T10:37:57.044Z,25.40
2018-09-08T10:40:25.268Z,24.10
2018-09-08T10:42:53.636Z,24.30
2018-09-08T10:45:21.982Z,26.00
2018-09-08T10:47:50.380Z,27.20
2018-09-08T10:50:18.608Z,27.90
2018-09-08T10:52:47.713Z,27.10
2018-09-08T10:55:15.899Z,26.90
2018-09-08T10:57:44.119Z,27.40
2018-09-08T11:00:13.051Z,28.00
2018-09-08T11:02:41.526Z,28.50
2018-09-08T11:05:09.576Z,27.90
2018-09-08T11:07:37.775Z,26.90
2018-09-08T11:10:06.393Z,26.90
2018-09-08T11:12:34.725Z,27.20
2018-09-08T11:15:02.792Z,27.70
2018-09-08T11:17:30.966Z,28.80
2018-09-08T11:19:59.060Z,28.10
2018-09-08T11:22:27.204Z,28.40
2018-09-08T11:24:55.227Z,28.60
2018-09-08T11:27:23.444Z,29.40
2018-09-08T11:29:51.560Z,29.30
2018-09-08T11:32:19.594Z,28.70
2018-09-08T11:34:47.732Z,28.70
2018-09-08T11:37:15.826Z,28.60
2018-09-08T11:39:43.964Z,29.10
2018-09-08T11:42:12.179Z,28.90
2018-09-08T11:44:40.260Z,28.00
2018-09-08T11:47:08.313Z,28.40
2018-09-08T11:49:36.433Z,27.90
2018-09-08T11:52:04.500Z,27.50
2018-09-08T11:54:32.540Z,28.00
2018-09-08T11:57:00.623Z,28.90
2018-09-08T11:59:28.778Z,28.80
2018-09-08T12:01:56.916Z,29.00
2018-09-08T12:04:25.037Z,29.00
2018-09-08T12:06:53.141Z,29.40
2018-09-08T12:09:21.300Z,29.00
2018-09-08T12:11:49.403Z,29.40
2018-09-08T12:14:17.474Z,29.00
2018-09-08T12:16:45.666Z,28.50
2018-09-08T12:19:14.008Z,29.10
2018-09-08T12:21:42.014Z,29.20
2018-09-08T12:24:10.283Z,29.40
2018-09-08T12:26:38.569Z,29.30
2018-09-08T12:29:06.838Z,29.40
2018-09-08T12:31:36.061Z,29.80
2018-09-08T12:34:04.616Z,29.60
2018-09-08T12:36:32.910Z,28.90
2018-09-08T12:39:01.199Z,29.30
2018-09-08T12:41:29.334Z,30.10
2018-09-08T12:43:57.545Z,29.10
2018-09-08T12:46:26.462Z,29.00
2018-09-08T12:48:54.709Z,28.80
2018-09-08T12:51:25.614Z,29.40
2018-09-08T12:53:54.076Z,29.70
2018-09-08T12:56:22.845Z,29.20
2018-09-08T12:58:51.089Z,28.50
2018-09-08T13:01:19.433Z,28.80
2018-09-08T13:03:47.557Z,28.90
2018-09-08T13:06:15.816Z,28.90
2018-09-08T13:08:44.003Z,29.00
2018-09-08T13:11:12.225Z,29.10
2018-09-08T13:13:40.724Z,27.90
2018-09-08T13:16:08.950Z,28.80
2018-09-08T13:18:37.203Z,28.90
2018-09-08T13:21:05.398Z,29.10
2018-09-08T13:23:33.653Z,29.10
2018-09-08T13:26:01.824Z,29.10
2018-09-08T13:28:30.015Z,29.20
2018-09-08T13:30:58.274Z,28.70
2018-09-08T13:33:27.736Z,28.80
2018-09-08T13:35:58.997Z,28.70
2018-09-08T13:38:27.429Z,28.70
2018-09-08T13:40:55.579Z,28.40
2018-09-08T13:43:23.815Z,28.40
2018-09-08T13:45:52.019Z,28.40
2018-09-08T13:48:20.092Z,28.20
2018-09-08T13:50:48.209Z,28.20
2018-09-08T13:53:16.462Z,28.10
2018-09-08T13:55:44.732Z,27.70
2018-09-08T13:58:13.034Z,27.80
2018-09-08T14:00:41.357Z,27.60
2018-09-08T14:03:09.443Z,27.10
2018-09-08T14:05:37.761Z,26.20
2018-09-08T14:08:08.535Z,25.50
2018-09-08T14:10:36.688Z,25.20
2018-09-08T14:13:04.936Z,25.30
2018-09-08T14:15:33.165Z,25.40
2018-09-08T14:18:01.295Z,25.80
2018-09-08T14:20:29.990Z,26.20
2018-09-08T14:22:58.176Z,25.70
2018-09-08T14:25:26.368Z,25.20
2018-09-08T14:27:54.427Z,24.50
2018-09-08T14:30:22.564Z,24.10
2018-09-08T14:32:50.652Z,23.70
2018-09-08T14:35:18.801Z,23.70
2018-09-08T14:37:46.995Z,23.30
2018-09-08T14:40:15.504Z,23.20
2018-09-08T14:42:43.740Z,23.10
2018-09-08T14:45:12.075Z,23.30
2018-09-08T14:47:40.194Z,23.30
2018-09-08T14:50:08.311Z,23.40
2018-09-08T14:52:36.458Z,23.60
2018-09-08T14:55:04.755Z,23.90
2018-09-08T14:57:32.866Z,24.80
2018-09-08T15:00:01.026Z,24.90
2018-09-08T15:02:29.173Z,24.70
2018-09-08T15:04:57.408Z,24.90
2018-09-08T15:07:26.979Z,24.80
2018-09-08T15:09:55.200Z,25.50
2018-09-08T15:12:23.729Z,25.60
2018-09-08T15:14:52.256Z,25.80
2018-09-08T15:17:20.521Z,25.70
2018-09-08T15:19:48.718Z,25.70
2018-09-08T15:22:17.184Z,25.10
2018-09-08T15:24:45.734Z,25.20
2018-09-08T15:27:14.016Z,25.80
2018-09-08T15:29:42.100Z,25.70
2018-09-08T15:32:10.466Z,26.00
2018-09-08T15:34:38.963Z,25.70
2018-09-08T15:37:07.234Z,25.60
2018-09-08T15:39:35.393Z,25.80
2018-09-08T15:42:03.791Z,26.00
2018-09-08T15:44:32.001Z,26.30
2018-09-08T15:47:00.364Z,26.40
2018-09-08T15:49:31.988Z,25.50
2018-09-08T15:52:01.193Z,25.40
2018-09-08T15:54:29.808Z,25.50
2018-09-08T15:56:58.200Z,25.20
2018-09-08T15:59:26.804Z,25.20
2018-09-08T16:01:55.116Z,25.30
2018-09-08T16:04:23.482Z,25.10
2018-09-08T16:06:51.889Z,25.00
2018-09-08T16:09:20.052Z,24.80
2018-09-08T16:11:48.159Z,24.20
2018-09-08T16:14:16.434Z,23.30
2018-09-08T16:16:44.627Z,23.20
2018-09-08T16:19:12.872Z,23.10
2018-09-08T16:21:41.315Z,23.00
2018-09-08T16:24:09.894Z,22.50
2018-09-08T16:26:38.028Z,22.40
2018-09-08T16:29:07.091Z,22.20
2018-09-08T16:31:35.204Z,22.00
2018-09-08T16:34:03.542Z,22.10
2018-09-08T16:36:31.744Z,22.00
2018-09-08T16:39:00.215Z,21.80
2018-09-08T16:41:28.736Z,21.40
2018-09-08T16:43:59.361Z,21.30
2018-09-08T16:46:28.647Z,21.00
2018-09-08T16:48:56.908Z,20.80
2018-09-08T16:51:26.149Z,20.80
2018-09-08T16:53:54.381Z,20.70
2018-09-08T16:56:22.616Z,20.40
2018-09-08T16:58:51.165Z,20.30
2018-09-08T17:01:19.590Z,20.20
2018-09-08T17:03:48.100Z,20.10
2018-09-08T17:06:16.422Z,19.90
2018-09-08T17:08:44.661Z,19.70
2018-09-08T17:11:13.056Z,19.60
2018-09-08T17:13:41.253Z,19.60
2018-09-08T17:16:09.438Z,19.60
2018-09-08T17:18:37.609Z,19.40
2018-09-08T17:21:05.777Z,19.30
2018-09-08T17:23:34.048Z,19.30
2018-09-08T17:26:02.736Z,19.30
2018-09-08T17:28:31.095Z,19.20
2018-09-08T17:30:59.753Z,19.00
2018-09-08T17:33:27.934Z,18.80
2018-09-08T17:35:56.260Z,18.60
2018-09-08T17:38:24.679Z,18.50
2018-09-08T17:40:52.807Z,18.30
2018-09-08T17:43:21.052Z,18.20
2018-09-08T17:45:49.270Z,18.20
2018-09-08T17:48:17.462Z,18.10
2018-09-08T17:50:45.632Z,18.10
2018-09-08T17:53:14.763Z,18.00
2018-09-08T17:55:44.322Z,17.90
2018-09-08T17:58:12.590Z,17.80
2018-09-08T18:00:40.958Z,17.70
2018-09-08T18:03:09.249Z,17.60
2018-09-08T18:05:37.717Z,17.60
2018-09-08T18:08:06.340Z,17.60
2018-09-08T18:10:34.769Z,17.50
2018-09-08T18:13:03.412Z,17.50
2018-09-08T18:15:31.717Z,17.50
2018-09-08T18:18:00.171Z,17.40
2018-09-08T18:20:28.588Z,17.30
2018-09-08T18:22:56.873Z,17.20
2018-09-08T18:25:25.145Z,17.20
2018-09-08T18:27:53.240Z,17.20
2018-09-08T18:30:22.419Z,17.10
2018-09-08T18:32:50.955Z,17.10
2018-09-08T18:35:19.240Z,17.20
2018-09-08T18:37:48.493Z,17.30
2018-09-08T18:40:16.943Z,17.30
2018-09-08T18:42:45.221Z,17.30
2018-09-08T18:45:13.778Z,17.30
2018-09-08T18:47:41.934Z,17.20
2018-09-08T18:50:10.325Z,17.10
2018-09-08T18:52:38.544Z,17.10
2018-09-08T18:55:06.862Z,17.00
2018-09-08T18:57:35.176Z,16.80
2018-09-08T19:00:03.348Z,16.80
2018-09-08T19:02:34.242Z,16.80
2018-09-08T19:05:02.769Z,16.70
2018-09-08T19:07:31.411Z,16.60
2018-09-08T19:10:05.937Z,16.50
2018-09-08T19:12:35.320Z,16.60
2018-09-08T19:15:10.670Z,16.60
2018-09-08T19:17:39.108Z,16.40
2018-09-08T19:20:12.791Z,16.30
2018-09-08T19:22:41.117Z,16.20
2018-09-08T19:26:12.938Z,16.20
2018-09-08T19:28:41.695Z,16.10
2018-09-08T19:31:10.513Z,15.90
2018-09-08T19:33:38.644Z,15.80
2018-09-08T19:36:07.106Z,15.60
2018-09-08T19:38:35.459Z,15.60
2018-09-08T19:41:06.082Z,15.60
2018-09-08T19:43:34.289Z,15.60
2018-09-08T19:46:06.898Z,15.50
2018-09-08T19:48:35.032Z,15.40
2018-09-08T19:51:03.174Z,15.30
2018-09-08T19:53:36.893Z,15.30
2018-09-08T19:56:05.118Z,15.30
2018-09-08T19:58:39.562Z,15.40
2018-09-08T20:01:07.766Z,15.50
2018-09-08T20:03:35.990Z,15.50
2018-09-08T20:06:04.361Z,15.50
2018-09-08T20:08:35.152Z,15.40
2018-09-08T20:11:07.447Z,15.30
2018-09-08T20:13:35.794Z,15.20
2018-09-08T20:16:04.006Z,15.30
2018-09-08T20:18:32.259Z,15.20
2018-09-08T20:21:00.589Z,15.10
2018-09-08T20:23:28.860Z,15.00
2018-09-08T20:25:57.143Z,15.00
2018-09-08T20:28:25.847Z,14.80
2018-09-08T20:30:54.076Z,14.80
2018-09-08T20:33:22.210Z,14.80
2018-09-08T20:35:50.380Z,14.70
2018-09-08T20:38:18.716Z,14.60
2018-09-08T20:40:46.907Z,14.50
2018-09-08T20:43:15.180Z,14.50
2018-09-08T20:45:43.464Z,14.60
2018-09-08T20:48:12.709Z,14.50
2018-09-08T20:50:40.811Z,14.50
2018-09-08T20:53:08.975Z,14.50
2018-09-08T20:55:37.529Z,14.40
2018-09-08T20:58:05.880Z,14.40
2018-09-08T21:00:34.340Z,14.30
2018-09-08T21:03:02.567Z,14.20
2018-09-08T21:05:30.802Z,14.20
2018-09-08T21:07:59.114Z,14.20
2018-09-08T21:10:27.297Z,14.20
2018-09-08T21:12:55.952Z,14.20
2018-09-08T21:15:24.162Z,14.30
2018-09-08T21:17:52.327Z,14.30
2018-09-08T21:20:20.451Z,14.20
2018-09-08T21:22:48.793Z,14.30
2018-09-08T21:25:16.934Z,14.20
2018-09-08T21:27:45.772Z,14.10
2018-09-08T21:30:13.984Z,14.10
2018-09-08T21:32:42.314Z,14.20
2018-09-08T21:35:10.512Z,14.10
2018-09-08T21:37:38.608Z,14.10
2018-09-08T21:40:06.800Z,14.10
2018-09-08T21:42:35.054Z,14.10
2018-09-08T21:45:03.477Z,14.10
2018-09-08T21:47:31.831Z,14.10
2018-09-08T21:50:00.225Z,14.10
2018-09-08T21:52:28.456Z,14.00
2018-09-08T21:54:56.641Z,13.90
2018-09-08T21:57:24.895Z,14.00
2018-09-08T21:59:53.064Z,14.00
2018-09-08T22:02:21.227Z,13.90
2018-09-08T22:04:49.409Z,13.90
2018-09-08T22:07:17.844Z,13.90
2018-09-08T22:09:46.332Z,13.90
2018-09-08T22:12:14.590Z,13.90
2018-09-08T22:14:42.835Z,13.80
2018-09-08T22:17:11.002Z,13.80
2018-09-08T22:19:39.157Z,13.70
2018-09-08T22:22:07.304Z,13.70
2018-09-08T22:24:35.491Z,13.60
2018-09-08T22:27:03.605Z,13.50
2018-09-08T22:29:31.704Z,13.40
2018-09-08T22:31:59.941Z,13.40
2018-09-08T22:34:28.077Z,13.30
2018-09-08T22:36:56.290Z,13.20
2018-09-08T22:39:24.465Z,13.20
2018-09-08T22:41:52.674Z,13.20
2018-09-08T22:44:20.854Z,13.10
2018-09-08T22:46:49.033Z,13.10
2018-09-08T22:49:17.403Z,13.00
2018-09-08T22:51:45.521Z,13.00
2018-09-08T22:54:13.767Z,12.90
2018-09-08T22:56:41.932Z,12.90
2018-09-08T22:59:10.044Z,13.00
2018-09-08T23:01:38.196Z,12.90
2018-09-08T23:04:06.592Z,12.90
2018-09-08T23:06:34.778Z,12.90
2018-09-08T23:09:03.068Z,12.90
2018-09-08T23:11:31.216Z,12.70
2018-09-08T23:13:59.380Z,12.70
2018-09-08T23:16:27.555Z,12.80
2018-09-08T23:18:55.727Z,12.80
2018-09-08T23:21:23.961Z,12.70
2018-09-08T23:23:52.031Z,12.70
2018-09-08T23:26:20.144Z,12.60
2018-09-08T23:28:48.300Z,12.60
2018-09-08T23:31:16.507Z,12.70
2018-09-08T23:33:44.695Z,12.70
2018-09-08T23:36:12.851Z,12.60
2018-09-08T23:38:41.053Z,12.40
2018-09-08T23:41:09.201Z,12.40
2018-09-08T23:43:37.317Z,12.40
2018-09-08T23:46:05.443Z,12.30
2018-09-08T23:48:33.660Z,12.30
2018-09-08T23:51:01.781Z,12.30
2018-09-08T23:53:29.993Z,12.30
2018-09-08T23:55:58.177Z,12.40
2018-09-08T23:58:26.333Z,12.30
